Time;durP1;ratioP1;P1;durP2;ratioP2;P2;SDS_P1;SDS_P2;PMS_P1;PMS_P2;Temp;Humidity;BMP_temperature;BMP_pressure;BME280_temperature;BME280_humidity;BME280_pressure;Samples;Min_cycle;Max_cycle;Signal;HPM_P1;HPM_P2
2021/06/08 05:02:43;;;;;;;6.13;3.92;;;17.00;99.90;;;;;;4964680;23;20065;-80
2021/06/08 05:05:16;;;;;;;6.60;3.70;;;17.00;99.90;;;;;;4955570;29;20082;-79
2021/06/08 05:07:49;;;;;;;5.82;3.55;;;17.00;99.90;;;;;;4955826;29;20134;-79
2021/06/08 05:10:17;;;;;;;6.03;3.67;;;17.10;99.90;;;;;;4955563;29;20142;-80
2021/06/08 05:12:45;;;;;;;4.93;3.20;;;17.00;99.90;;;;;;4954792;29;20060;-79
2021/06/08 05:15:17;;;;;;;7.88;3.78;;;17.10;99.90;;;;;;4955133;29;20055;-80
2021/06/08 05:17:46;;;;;;;5.82;3.60;;;17.10;99.90;;;;;;4955211;29;20094;-79
2021/06/08 05:20:14;;;;;;;4.97;3.33;;;17.10;99.90;;;;;;4955466;29;20055;-80
2021/06/08 05:22:43;;;;;;;6.50;3.70;;;17.10;99.90;;;;;;4955627;29;20075;-80
2021/06/08 05:25:12;;;;;;;5.22;3.45;;;17.10;99.90;;;;;;4956840;29;20047;-81
2021/06/08 05:27:39;;;;;;;5.13;3.25;;;17.10;99.90;;;;;;4959239;29;20497;-79
2021/06/08 05:30:10;;;;;;;5.65;3.70;;;17.10;99.90;;;;;;4955195;29;20551;-80
2021/06/08 05:32:38;;;;;;;5.45;3.63;;;17.10;99.90;;;;;;4955481;29;20094;-81
2021/06/08 05:35:09;;;;;;;5.22;3.67;;;17.10;99.90;;;;;;4955233;29;20485;-80
2021/06/08 05:37:41;;;;;;;5.88;3.65;;;17.10;99.90;;;;;;4955085;29;20547;-80
2021/06/08 05:40:10;;;;;;;5.80;3.70;;;17.20;99.90;;;;;;4955228;29;20047;-80
2021/06/08 05:42:36;;;;;;;6.57;4.40;;;17.20;99.90;;;;;;4954618;29;20556;-80
2021/06/08 05:45:05;;;;;;;6.13;3.65;;;17.20;99.90;;;;;;4955024;29;20460;-79
2021/06/08 05:47:32;;;;;;;6.05;4.00;;;17.20;99.90;;;;;;4954844;29;20043;-80
2021/06/08 05:50:02;;;;;;;5.65;3.85;;;17.20;99.90;;;;;;4938018;29;20288;-80
2021/06/08 05:52:31;;;;;;;6.38;3.72;;;17.20;99.90;;;;;;4954945;29;20047;-79
2021/06/08 05:54:59;;;;;;;6.38;3.92;;;17.30;99.90;;;;;;4954943;29;20086;-80
2021/06/08 05:57:26;;;;;;;6.68;3.90;;;17.30;99.90;;;;;;4990054;23;20469;-80
2021/06/08 05:59:53;;;;;;;6.53;4.20;;;17.30;99.90;;;;;;4955042;29;20523;-80
2021/06/08 06:02:20;;;;;;;6.95;4.03;;;17.30;99.90;;;;;;4954546;29;20461;-80
2021/06/08 06:04:47;;;;;;;10.85;6.63;;;17.30;99.90;;;;;;4955091;29;20051;-80
2021/06/08 06:07:15;;;;;;;14.75;9.20;;;17.40;99.90;;;;;;4956740;28;20500;-78
2021/06/08 06:09:43;;;;;;;14.30;8.75;;;17.40;99.90;;;;;;4959587;29;20047;-79
2021/06/08 06:12:11;;;;;;;9.57;6.65;;;17.40;99.90;;;;;;4958194;29;20054;-78
2021/06/08 06:14:39;;;;;;;7.88;5.38;;;17.40;99.90;;;;;;4958281;29;20517;-78
2021/06/08 06:17:08;;;;;;;7.68;4.72;;;17.40;99.90;;;;;;4958015;29;20059;-78
2021/06/08 06:19:35;;;;;;;6.60;4.30;;;17.40;99.90;;;;;;4958307;29;20051;-80
2021/06/08 06:22:02;;;;;;;5.90;3.97;;;17.40;99.90;;;;;;4957949;29;20058;-79
2021/06/08 06:24:31;;;;;;;6.65;4.10;;;17.50;99.90;;;;;;4960738;29;20074;-80
2021/06/08 06:27:00;;;;;;;8.20;4.90;;;17.40;99.90;;;;;;4960626;29;20103;-81
2021/06/08 06:29:26;;;;;;;6.55;4.72;;;17.50;99.90;;;;;;4957774;29;20568;-81
2021/06/08 06:31:56;;;;;;;7.35;4.40;;;17.40;99.90;;;;;;4958199;29;20596;-79
2021/06/08 06:34:24;;;;;;;6.40;4.22;;;17.50;99.90;;;;;;4958061;29;20141;-80
2021/06/08 06:36:55;;;;;;;7.90;4.68;;;17.50;99.90;;;;;;4957901;29;20416;-80
2021/06/08 06:39:26;;;;;;;6.85;4.28;;;17.50;99.90;;;;;;4958217;29;20047;-80
2021/06/08 06:41:57;;;;;;;8.68;5.25;;;17.50;99.90;;;;;;4958234;29;20051;-79
2021/06/08 06:44:26;;;;;;;7.35;4.70;;;17.50;99.90;;;;;;4957745;29;20079;-79
2021/06/08 06:46:53;;;;;;;7.40;4.80;;;17.50;99.90;;;;;;4957961;29;20098;-80
2021/06/08 06:49:20;;;;;;;7.38;4.88;;;17.50;99.90;;;;;;4958272;29;20101;-80
2021/06/08 06:51:48;;;;;;;7.57;4.65;;;17.50;99.90;;;;;;4957902;29;20105;-78
2021/06/08 06:54:15;;;;;;;7.45;5.00;;;17.50;99.90;;;;;;4957595;29;20134;-79
2021/06/08 06:56:44;;;;;;;8.35;5.18;;;17.50;99.90;;;;;;4957063;29;20145;-80
2021/06/08 06:59:10;;;;;;;9.82;5.57;;;17.60;99.90;;;;;;4957137;29;20631;-79
2021/06/08 07:01:41;;;;;;;7.18;5.00;;;17.60;99.90;;;;;;4957498;29;20133;-80
2021/06/08 07:04:10;;;;;;;9.27;4.95;;;17.60;99.90;;;;;;4957318;29;20047;-78
2021/06/08 07:06:38;;;;;;;7.47;5.00;;;17.60;99.90;;;;;;4957050;29;20082;-81
2021/06/08 07:09:05;;;;;;;7.82;5.38;;;17.60;99.90;;;;;;4957283;29;20102;-81
2021/06/08 07:11:32;;;;;;;7.50;4.57;;;17.60;99.90;;;;;;4956891;29;20083;-80
2021/06/08 07:13:59;;;;;;;7.35;4.82;;;17.70;99.90;;;;;;4956616;29;20142;-79
2021/06/08 07:16:26;;;;;;;9.48;5.10;;;17.70;99.90;;;;;;4956974;29;20059;-80
2021/06/08 07:18:54;;;;;;;9.07;5.70;;;17.70;99.90;;;;;;4956027;28;20130;-79
2021/06/08 07:21:25;;;;;;;10.45;6.15;;;17.70;99.90;;;;;;4956824;29;20098;-80
2021/06/08 07:23:54;;;;;;;9.13;5.93;;;17.70;99.90;;;;;;4956815;29;20055;-81
2021/06/08 07:26:22;;;;;;;8.75;5.40;;;17.70;99.90;;;;;;4956959;29;20138;-80
2021/06/08 07:28:49;;;;;;;9.63;5.60;;;17.70;99.90;;;;;;4956717;29;20401;-80
2021/06/08 07:31:28;;;;;;;10.18;5.75;;;17.80;99.90;;;;;;4956790;29;20097;-79
2021/06/08 07:34:04;;;;;;;11.93;7.13;;;17.80;99.90;;;;;;4956988;29;20134;-80
2021/06/08 07:36:41;;;;;;;13.45;7.50;;;17.90;99.90;;;;;;4957412;29;20401;-81
2021/06/08 07:39:20;;;;;;;11.82;7.00;;;17.80;99.90;;;;;;4957188;29;20138;-81
2021/06/08 07:41:53;;;;;;;16.13;8.90;;;17.90;99.90;;;;;;4957204;29;20058;-80
2021/06/08 07:44:28;;;;;;;15.38;9.27;;;17.90;99.90;;;;;;4956336;29;20051;-79
2021/06/08 07:46:54;;;;;;;;;;;17.90;99.90;;;;;;4957037;29;20055;-80
2021/06/08 07:49:24;;;;;;;14.65;9.70;;;18.00;99.90;;;;;;4956816;29;19972;-80
2021/06/08 07:51:51;;;;;;;13.77;8.75;;;18.00;99.90;;;;;;4956770;29;20532;-79
2021/06/08 07:54:18;;;;;;;15.07;8.55;;;18.00;99.90;;;;;;4956598;29;20086;-81
2021/06/08 07:56:45;;;;;;;16.05;9.88;;;18.10;99.90;;;;;;4956149;29;20146;-80
2021/06/08 07:59:13;;;;;;;16.50;9.32;;;18.10;99.90;;;;;;4955966;29;20134;-79
2021/06/08 08:01:40;;;;;;;15.65;9.15;;;18.20;99.90;;;;;;4956684;29;20137;-80
2021/06/08 08:04:08;;;;;;;13.75;9.20;;;18.20;99.90;;;;;;4956674;29;20079;-80
2021/06/08 08:06:37;;;;;;;14.45;9.60;;;18.20;99.90;;;;;;4956683;29;20061;-80
2021/06/08 08:09:05;;;;;;;17.52;10.70;;;18.30;99.90;;;;;;4962083;29;20051;-81
2021/06/08 08:11:32;;;;;;;17.50;11.35;;;18.30;99.90;;;;;;4956597;29;20104;-80
2021/06/08 08:14:03;;;;;;;21.65;14.63;;;18.30;99.90;;;;;;4955698;29;20055;-80
2021/06/08 08:16:30;;;;;;;21.00;13.13;;;18.30;99.90;;;;;;4956527;29;20055;-79
2021/06/08 08:18:58;;;;;;;22.65;15.43;;;18.30;99.90;;;;;;4956930;29;20142;-81
2021/06/08 08:21:25;;;;;;;23.83;16.05;;;18.30;99.90;;;;;;4956469;29;20110;-82
2021/06/08 08:23:53;;;;;;;21.60;15.15;;;18.30;99.90;;;;;;4956466;29;20142;-80
2021/06/08 08:26:19;;;;;;;24.83;16.95;;;18.30;99.90;;;;;;4955605;29;20139;-80
2021/06/08 08:28:49;;;;;;;24.10;16.25;;;18.30;99.90;;;;;;4956716;29;20143;-80
2021/06/08 08:31:19;;;;;;;26.33;17.65;;;18.40;99.90;;;;;;4956473;28;20058;-79
2021/06/08 08:33:47;;;;;;;24.52;17.00;;;18.40;99.90;;;;;;4956318;29;20062;-80
2021/06/08 08:36:14;;;;;;;26.60;18.10;;;18.40;99.90;;;;;;4956402;29;20138;-80
2021/06/08 08:38:41;;;;;;;25.52;17.48;;;18.50;99.90;;;;;;4956830;29;20053;-79
2021/06/08 08:41:09;;;;;;;20.95;15.45;;;18.40;99.90;;;;;;4955046;29;20479;-78
2021/06/08 08:43:35;;;;;;;20.50;15.23;;;18.40;99.90;;;;;;4956378;29;20138;-80
2021/06/08 08:46:03;;;;;;;21.40;14.98;;;18.50;99.90;;;;;;4955920;29;20497;-81
2021/06/08 08:48:31;;;;;;;27.52;17.60;;;18.40;99.90;;;;;;4955993;29;20142;-79
2021/06/08 08:50:58;;;;;;;25.52;18.42;;;18.50;99.90;;;;;;4955476;29;20083;-77
2021/06/08 08:53:25;;;;;;;23.15;16.27;;;18.40;99.90;;;;;;4955179;29;20126;-80
2021/06/08 08:55:51;;;;;;;26.30;18.13;;;18.40;99.90;;;;;;4954944;29;20047;-80
2021/06/08 08:58:19;;;;;;;23.63;17.10;;;18.40;99.90;;;;;;4955154;29;20089;-79
2021/06/08 09:00:46;;;;;;;22.80;16.52;;;18.40;99.90;;;;;;4955474;29;20137;-79
2021/06/08 09:03:15;;;;;;;25.55;17.95;;;18.40;99.90;;;;;;4955248;29;20414;-80
2021/06/08 09:05:42;;;;;;;20.58;15.30;;;18.40;99.90;;;;;;4955368;29;20058;-80
2021/06/08 09:08:10;;;;;;;23.52;15.00;;;18.50;99.90;;;;;;4955251;29;20139;-79
2021/06/08 09:10:40;;;;;;;17.40;12.80;;;18.50;99.90;;;;;;4955140;29;20052;-81
2021/06/08 09:13:07;;;;;;;19.85;13.77;;;18.60;99.90;;;;;;4955194;29;20051;-80
2021/06/08 09:15:35;;;;;;;19.75;14.13;;;18.60;99.90;;;;;;4955036;29;20500;-80
2021/06/08 09:18:03;;;;;;;17.65;12.25;;;18.70;99.90;;;;;;4955219;29;20420;-82
2021/06/08 09:20:32;;;;;;;18.42;13.50;;;18.80;99.90;;;;;;4956097;29;20146;-80
2021/06/08 09:23:01;;;;;;;18.75;13.10;;;18.90;99.90;;;;;;4958608;29;20055;-80
2021/06/08 09:25:45;;;;;;;19.98;14.13;;;19.00;99.90;;;;;;4955111;29;20082;-78
2021/06/08 09:28:25;;;;;;;19.75;14.63;;;19.20;99.90;;;;;;4955123;29;20062;-80
2021/06/08 09:31:00;;;;;;;25.40;16.75;;;19.30;99.90;;;;;;4955305;29;20535;-80
2021/06/08 09:33:29;;;;;;;24.42;16.80;;;19.40;99.90;;;;;;4955132;29;20134;-80
2021/06/08 09:35:59;;;;;;;22.88;17.13;;;19.60;99.90;;;;;;4954886;29;20109;-79
2021/06/08 09:38:42;;;;;;;22.15;16.33;;;19.70;99.90;;;;;;4955249;29;20062;-81
2021/06/08 09:41:25;;;;;;;19.67;14.60;;;19.80;99.90;;;;;;4954862;28;20134;-79
2021/06/08 09:43:57;;;;;;;19.27;13.80;;;19.90;99.90;;;;;;4958415;29;20471;-80
2021/06/08 09:46:29;;;;;;;22.00;14.90;;;20.00;99.90;;;;;;4959132;29;20294;-80
2021/06/08 09:48:58;;;;;;;19.10;14.20;;;20.10;99.90;;;;;;4959328;29;20142;-77
2021/06/08 09:51:27;;;;;;;24.88;17.50;;;20.20;99.90;;;;;;4965116;29;20082;-81
2021/06/08 09:53:54;;;;;;;22.67;17.40;;;20.40;99.90;;;;;;4958920;29;20058;-78
2021/06/08 09:56:21;;;;;;;20.67;16.13;;;20.50;99.90;;;;;;4958829;29;20066;-81
2021/06/08 09:58:51;;;;;;;21.05;14.30;;;20.50;99.90;;;;;;4958823;29;20094;-80
2021/06/08 10:01:21;;;;;;;19.30;13.88;;;20.70;99.90;;;;;;4959012;29;20111;-80
2021/06/08 10:03:52;;;;;;;20.52;16.40;;;20.60;99.90;;;;;;4958727;29;20051;-80
2021/06/08 10:06:21;;;;;;;23.20;17.15;;;20.70;99.90;;;;;;4958827;29;20079;-79
2021/06/08 10:08:57;;;;;;;20.45;15.50;;;20.80;99.90;;;;;;4958604;29;20130;-80
2021/06/08 10:11:27;;;;;;;20.05;15.07;;;20.90;99.90;;;;;;4958811;29;20078;-80
2021/06/08 10:13:59;;;;;;;22.80;17.20;;;20.90;99.90;;;;;;4957926;29;20058;-78
2021/06/08 10:16:30;;;;;;;20.52;16.98;;;20.90;99.90;;;;;;4958562;29;20063;-80
2021/06/08 10:19:00;;;;;;;25.65;18.33;;;20.90;99.90;;;;;;4958239;29;20043;-81
2021/06/08 10:21:46;;;;;;;25.38;19.77;;;21.00;99.90;;;;;;4958315;29;20488;-78
2021/06/08 10:24:15;;;;;;;27.08;19.38;;;21.00;99.90;;;;;;4958478;29;20452;-80
2021/06/08 10:26:47;;;;;;;21.23;16.80;;;20.90;99.90;;;;;;4958348;29;20493;-80
2021/06/08 10:29:14;;;;;;;20.17;16.30;;;20.90;99.90;;;;;;4958735;29;20062;-80
2021/06/08 10:31:43;;;;;;;21.45;16.75;;;20.90;99.90;;;;;;4957688;29;20515;-79
2021/06/08 10:34:12;;;;;;;21.98;17.35;;;20.90;99.90;;;;;;4957871;29;20134;-80
2021/06/08 10:36:41;;;;;;;23.60;18.08;;;21.00;99.90;;;;;;4957791;29;20085;-79
2021/06/08 10:39:11;;;;;;;23.38;17.85;;;21.00;99.90;;;;;;4958044;29;20083;-80
2021/06/08 10:41:40;;;;;;;21.20;16.17;;;21.10;99.90;;;;;;4958692;29;20047;-80
2021/06/08 10:44:08;;;;;;;22.10;16.52;;;21.10;99.70;;;;;;4957794;29;20178;-80
2021/06/08 10:46:44;;;;;;;20.17;15.88;;;21.10;99.70;;;;;;4957255;29;20134;-81
2021/06/08 10:49:12;;;;;;;19.55;15.90;;;21.20;99.70;;;;;;4957768;29;20044;-80
2021/06/08 10:51:39;;;;;;;18.23;15.30;;;21.20;99.70;;;;;;4957855;29;20082;-81
2021/06/08 10:54:18;;;;;;;17.42;14.45;;;21.30;99.70;;;;;;4961451;28;20114;-80
2021/06/08 10:56:58;;;;;;;20.42;15.70;;;21.30;99.60;;;;;;4958340;29;20109;-81
2021/06/08 10:59:35;;;;;;;19.05;15.40;;;21.30;99.40;;;;;;4957809;29;20055;-80
2021/06/08 11:02:03;;;;;;;18.83;14.65;;;21.40;99.50;;;;;;4957664;29;20051;-79
2021/06/08 11:04:53;;;;;;;19.15;15.18;;;21.30;99.40;;;;;;4957309;29;20126;-79
2021/06/08 11:07:52;;;;;;;20.50;15.50;;;21.30;99.40;;;;;;4957688;29;20079;-79
2021/06/08 11:10:56;;;;;;;19.27;15.25;;;21.30;99.40;;;;;;4957650;29;20106;-80
2021/06/08 11:13:52;;;;;;;18.25;14.65;;;21.30;99.80;;;;;;4879481;29;20132;-79
2021/06/08 11:16:56;;;;;;;21.17;15.77;;;21.20;99.90;;;;;;4879850;29;20495;-78
2021/06/08 11:19:52;;;;;;;21.80;15.77;;;21.20;99.90;;;;;;4951925;29;20130;-79
2021/06/08 11:22:21;;;;;;;18.58;15.40;;;21.20;99.80;;;;;;4957185;29;20051;-79
2021/06/08 11:24:50;;;;;;;24.02;15.63;;;21.20;99.90;;;;;;4957222;29;20051;-79
2021/06/08 11:27:19;;;;;;;18.52;15.57;;;21.20;99.80;;;;;;4957454;29;20412;-79
2021/06/08 11:29:51;;;;;;;16.08;13.07;;;21.20;99.90;;;;;;4957372;29;20043;-80
2021/06/08 11:32:47;;;;;;;17.25;13.98;;;21.30;99.90;;;;;;4965035;29;20134;-80
2021/06/08 11:35:29;;;;;;;17.10;13.65;;;21.30;99.90;;;;;;4962330;29;20106;-81
2021/06/08 11:38:09;;;;;;;17.10;13.75;;;21.40;99.90;;;;;;4967515;29;20051;-79
2021/06/08 11:40:56;;;;;;;17.88;14.50;;;21.60;99.90;;;;;;4967457;29;20102;-80
2021/06/08 11:44:02;;;;;;;17.65;13.93;;;21.80;99.80;;;;;;4965977;29;20062;-80
2021/06/08 11:47:00;;;;;;;17.88;13.02;;;21.90;99.60;;;;;;4956285;29;20054;-80
2021/06/08 11:49:29;;;;;;;19.98;15.50;;;21.90;99.20;;;;;;4956300;29;20086;-80
2021/06/08 11:52:17;;;;;;;16.10;13.18;;;22.00;98.70;;;;;;4956659;29;20133;-80
2021/06/08 11:54:49;;;;;;;19.17;15.77;;;22.00;98.60;;;;;;4956521;29;20050;-79
2021/06/08 11:57:35;;;;;;;20.60;16.42;;;22.00;98.20;;;;;;4956666;29;20055;-80
2021/06/08 12:00:07;;;;;;;20.80;16.13;;;22.00;97.90;;;;;;4956625;29;20139;-79
2021/06/08 12:02:38;;;;;;;17.90;14.98;;;22.00;97.80;;;;;;4956649;29;20142;-80
2021/06/08 12:05:22;;;;;;;19.92;15.45;;;22.00;98.10;;;;;;4955933;28;20563;-80
2021/06/08 12:07:57;;;;;;;22.00;17.75;;;22.00;98.20;;;;;;4955833;29;20047;-79
2021/06/08 12:10:35;;;;;;;21.48;18.38;;;21.90;98.00;;;;;;4955889;29;20051;-80
2021/06/08 12:13:02;;;;;;;23.63;19.60;;;21.90;98.10;;;;;;4939443;29;20051;-79
2021/06/08 12:15:32;;;;;;;21.48;17.80;;;21.90;98.00;;;;;;4956188;29;20138;-80
2021/06/08 12:18:08;;;;;;;21.23;17.60;;;21.80;98.30;;;;;;4956398;29;20047;-80
2021/06/08 12:20:38;;;;;;;19.23;16.15;;;21.80;98.20;;;;;;4956111;29;20051;-80
2021/06/08 12:23:06;;;;;;;22.27;17.33;;;21.90;98.30;;;;;;4956311;29;20051;-79
2021/06/08 12:25:33;;;;;;;21.52;16.40;;;21.90;98.40;;;;;;4955852;29;20624;-81
2021/06/08 12:28:00;;;;;;;22.25;17.42;;;22.00;98.40;;;;;;4955816;29;20086;-80
2021/06/08 12:30:29;;;;;;;20.65;15.70;;;22.10;98.30;;;;;;4956226;29;20564;-78
2021/06/08 12:32:58;;;;;;;16.20;13.80;;;22.30;98.20;;;;;;4955925;29;20087;-78
2021/06/08 12:35:36;;;;;;;15.43;12.77;;;22.40;98.60;;;;;;4955918;29;20058;-78
2021/06/08 12:38:18;;;;;;;23.92;19.40;;;22.70;98.70;;;;;;4956245;29;20066;-79
2021/06/08 12:40:58;;;;;;;26.45;19.88;;;22.80;97.40;;;;;;4955982;29;20055;-78
2021/06/08 12:43:25;;;;;;;17.60;14.93;;;22.90;96.60;;;;;;4955644;29;20055;-79
2021/06/08 12:45:57;;;;;;;19.60;15.63;;;23.00;96.60;;;;;;4955962;29;20125;-80
2021/06/08 12:48:24;;;;;;;22.13;17.50;;;23.10;96.60;;;;;;4955911;29;20568;-79
2021/06/08 12:50:50;;;;;;;21.83;18.13;;;23.10;96.00;;;;;;4956012;29;20094;-79
2021/06/08 12:53:23;;;;;;;18.88;15.45;;;23.10;95.60;;;;;;4956102;29;20091;-80
2021/06/08 12:55:51;;;;;;;19.88;16.45;;;23.20;96.20;;;;;;4955629;29;20118;-79
2021/06/08 12:58:18;;;;;;;22.25;18.38;;;23.30;96.40;;;;;;4955436;29;20529;-80
2021/06/08 13:00:46;;;;;;;19.90;16.98;;;23.40;95.90;;;;;;4955524;29;20130;-78
2021/06/08 13:03:13;;;;;;;22.23;16.98;;;23.40;95.70;;;;;;4955792;29;20103;-79
2021/06/08 13:05:42;;;;;;;22.83;18.60;;;23.60;95.90;;;;;;4956702;29;20058;-78
2021/06/08 13:08:10;;;;;;;20.73;15.50;;;23.80;95.00;;;;;;4956420;29;20059;-78
2021/06/08 13:10:39;;;;;;;16.67;14.77;;;24.00;95.10;;;;;;4955770;29;20111;-80
2021/06/08 13:13:08;;;;;;;21.23;17.95;;;24.20;94.90;;;;;;4961905;29;20078;-80
2021/06/08 13:15:38;;;;;;;17.42;14.98;;;24.30;93.60;;;;;;4956263;28;20576;-80
2021/06/08 13:18:11;;;;;;;17.15;14.05;;;24.40;93.90;;;;;;4959079;29;20130;-80
2021/06/08 13:20:41;;;;;;;17.00;14.23;;;24.40;94.20;;;;;;4959557;29;20138;-80
2021/06/08 13:23:20;;;;;;;19.02;16.92;;;24.60;94.50;;;;;;4959660;29;20055;-80
2021/06/08 13:26:01;;;;;;;18.63;15.30;;;24.70;93.30;;;;;;4958904;29;20050;-78
2021/06/08 13:28:34;;;;;;;17.40;14.93;;;24.90;93.50;;;;;;4959028;29;20051;-78
2021/06/08 13:31:09;;;;;;;16.67;14.32;;;25.10;92.90;;;;;;4959592;29;20102;-78
2021/06/08 13:33:38;;;;;;;20.15;15.18;;;25.20;92.70;;;;;;4959671;29;20055;-79
2021/06/08 13:36:07;;;;;;;15.60;13.25;;;25.30;91.60;;;;;;4959315;29;20473;-78
2021/06/08 13:38:33;;;;;;;16.58;14.65;;;25.20;91.80;;;;;;4959555;29;20130;-80
2021/06/08 13:41:01;;;;;;;13.82;11.68;;;25.30;91.90;;;;;;4959363;29;20083;-79
2021/06/08 13:43:40;;;;;;;16.92;13.00;;;25.40;92.30;;;;;;4959306;29;20509;-80
2021/06/08 13:46:12;;;;;;;16.70;13.57;;;25.70;91.90;;;;;;4960207;29;20473;-79
2021/06/08 13:48:46;;;;;;;16.20;14.40;;;25.90;91.50;;;;;;4959680;29;20151;-80
2021/06/08 13:51:16;;;;;;;15.88;13.60;;;25.90;91.30;;;;;;4959438;29;20051;-79
2021/06/08 13:53:44;;;;;;;14.70;12.30;;;26.10;91.20;;;;;;4959325;29;20051;-80
2021/06/08 13:56:18;;;;;;;17.25;14.85;;;26.10;91.30;;;;;;4958934;29;20528;-80
2021/06/08 14:01:34;;;;;;;17.85;14.65;;;26.20;90.90;;;;;;4958933;29;20097;-79
2021/06/08 14:04:09;;;;;;;17.65;14.45;;;26.30;90.60;;;;;;4959049;29;20094;-79
2021/06/08 14:06:38;;;;;;;15.27;12.73;;;26.40;89.50;;;;;;4959279;29;20133;-80
2021/06/08 14:09:09;;;;;;;14.15;11.38;;;26.50;88.60;;;;;;4941728;29;20097;-80
2021/06/08 14:11:43;;;;;;;15.93;12.75;;;26.60;89.30;;;;;;4937482;29;20091;-79
2021/06/08 14:14:12;;;;;;;15.70;13.25;;;26.60;87.20;;;;;;4937554;29;20087;-79
2021/06/08 14:16:41;;;;;;;14.82;13.23;;;26.60;84.70;;;;;;4937557;29;20051;-80
2021/06/08 14:19:09;;;;;;;13.90;11.85;;;26.60;84.70;;;;;;4937596;29;20189;-79
2021/06/08 14:21:37;;;;;;;11.98;10.23;;;26.50;84.30;;;;;;4940000;29;20190;-80
2021/06/08 14:24:04;;;;;;;14.75;12.85;;;26.60;86.90;;;;;;4946735;29;20940;-80
2021/06/08 14:26:32;;;;;;;17.85;14.18;;;26.70;85.10;;;;;;4946298;29;20079;-79
2021/06/08 14:29:01;;;;;;;14.45;11.30;;;26.60;80.70;;;;;;4940691;29;20059;-79
2021/06/08 14:31:29;;;;;;;13.00;11.00;;;26.60;83.50;;;;;;4937305;29;20051;-80
2021/06/08 14:33:57;;;;;;;11.48;10.15;;;26.80;84.20;;;;;;4937061;29;20569;-79
2021/06/08 14:36:23;;;;;;;12.05;10.75;;;27.00;85.10;;;;;;4937277;29;20063;-78
2021/06/08 14:38:50;;;;;;;13.50;10.85;;;27.20;85.20;;;;;;4937138;29;20110;-78
2021/06/08 14:41:17;;;;;;;15.50;13.23;;;27.50;85.00;;;;;;4936795;29;20055;-78
2021/06/08 14:43:45;;;;;;;11.65;9.68;;;27.60;79.20;;;;;;4936712;29;20143;-79
2021/06/08 14:46:14;;;;;;;14.80;12.70;;;27.50;79.80;;;;;;4936928;29;20086;-78
2021/06/08 14:48:41;;;;;;;15.20;12.07;;;27.40;80.10;;;;;;4936680;29;20467;-78
2021/06/08 14:51:07;;;;;;;13.27;10.68;;;27.40;80.70;;;;;;4936935;29;20091;-78
2021/06/08 14:53:34;;;;;;;13.23;11.15;;;27.30;81.70;;;;;;4943298;29;20087;-79
2021/06/08 14:56:01;;;;;;;10.68;9.52;;;27.20;79.30;;;;;;4944380;29;20097;-77
2021/06/08 14:58:27;;;;;;;11.55;10.38;;;27.10;80.30;;;;;;4954889;29;20585;-81
2021/06/08 15:00:54;;;;;;;10.95;9.73;;;27.00;81.30;;;;;;4939285;29;20051;-84
2021/06/08 15:03:23;;;;;;;10.73;9.52;;;26.90;82.30;;;;;;4956339;29;20133;-83
2021/06/08 15:05:49;;;;;;;12.35;11.00;;;27.10;84.10;;;;;;4953450;29;20055;-80
2021/06/08 15:08:16;;;;;;;10.50;9.40;;;27.30;81.20;;;;;;4955400;29;20126;-79
2021/06/08 15:10:42;;;;;;;12.55;11.10;;;27.60;82.00;;;;;;4953978;29;20403;-76
2021/06/08 15:13:09;;;;;;;11.18;9.75;;;27.80;76.40;;;;;;4935591;29;20138;-80
2021/06/08 15:15:37;;;;;;;13.93;10.65;;;28.00;74.60;;;;;;4943105;29;20063;-78
2021/06/08 15:18:05;;;;;;;10.80;9.40;;;27.90;74.10;;;;;;4942458;29;20052;-79
2021/06/08 15:20:34;;;;;;;10.10;8.95;;;28.00;73.90;;;;;;4953141;29;20047;-78
2021/06/08 15:23:00;;;;;;;12.15;9.95;;;28.00;73.70;;;;;;4954704;29;20075;-78
2021/06/08 15:25:30;;;;;;;11.25;9.38;;;27.90;72.70;;;;;;4952659;29;20135;-78
2021/06/08 15:27:57;;;;;;;11.65;9.18;;;27.90;73.20;;;;;;4935544;29;20142;-80
2021/06/08 15:30:24;;;;;;;10.25;8.70;;;28.00;74.20;;;;;;4935458;29;20052;-79
2021/06/08 15:32:52;;;;;;;11.98;8.60;;;28.00;73.70;;;;;;4934783;29;20365;-80
2021/06/08 15:35:19;;;;;;;9.95;8.55;;;28.00;73.60;;;;;;4935176;29;20515;-78
2021/06/08 15:37:48;;;;;;;9.63;8.55;;;27.90;74.70;;;;;;4951446;29;20154;-75
2021/06/08 15:40:15;;;;;;;10.45;8.20;;;27.80;75.40;;;;;;4943401;28;20130;-79
2021/06/08 15:42:42;;;;;;;11.23;9.45;;;27.80;75.20;;;;;;4935573;29;20051;-79
2021/06/08 15:45:10;;;;;;;10.30;8.68;;;27.70;74.40;;;;;;4947803;29;20059;-78
2021/06/08 15:47:37;;;;;;;9.45;7.85;;;27.60;72.90;;;;;;4946065;29;20143;-78
2021/06/08 15:50:05;;;;;;;8.40;6.93;;;27.50;72.80;;;;;;4938168;28;20134;-78
2021/06/08 15:52:31;;;;;;;9.35;7.75;;;27.50;76.10;;;;;;4954222;29;20043;-79
2021/06/08 15:55:00;;;;;;;10.10;8.27;;;27.70;74.80;;;;;;4954407;29;20253;-78
2021/06/08 15:57:26;;;;;;;9.82;8.35;;;27.70;73.40;;;;;;4953074;29;20082;-77
2021/06/08 15:59:53;;;;;;;7.82;7.03;;;27.70;72.90;;;;;;4953408;29;20471;-76
2021/06/08 16:02:20;;;;;;;8.77;7.47;;;27.70;74.10;;;;;;4949034;28;20150;-78
2021/06/08 16:04:46;;;;;;;9.25;8.25;;;27.70;74.40;;;;;;4946882;29;20138;-77
2021/06/08 16:07:13;;;;;;;10.60;8.55;;;27.50;74.20;;;;;;4947346;29;20079;-77
2021/06/08 16:09:40;;;;;;;8.60;7.70;;;27.40;73.80;;;;;;4954012;29;20180;-77
2021/06/08 16:12:10;;;;;;;8.13;5.68;;;27.20;74.20;;;;;;4953673;29;20059;-74
2021/06/08 16:14:37;;;;;;;5.53;4.20;;;26.80;67.80;;;;;;4953573;28;20118;-77
2021/06/08 16:17:05;;;;;;;5.15;4.07;;;26.30;65.90;;;;;;4952969;29;20165;-78
2021/06/08 16:19:32;;;;;;;6.13;4.68;;;25.80;66.20;;;;;;4951163;29;20047;-78
2021/06/08 16:21:58;;;;;;;8.70;5.22;;;25.40;68.50;;;;;;4953353;29;20122;-77
2021/06/08 16:24:25;;;;;;;7.20;4.00;;;25.00;74.50;;;;;;4953353;29;20404;-79
2021/06/08 16:26:52;;;;;;;6.93;4.82;;;24.60;76.30;;;;;;4958650;28;20130;-76
2021/06/08 16:29:20;;;;;;;6.00;4.50;;;24.30;78.80;;;;;;4952539;29;20138;-77
2021/06/08 16:31:47;;;;;;;6.60;4.55;;;24.00;79.90;;;;;;4951726;29;20047;-76
2021/06/08 16:34:15;;;;;;;7.72;5.35;;;23.70;79.60;;;;;;4933676;29;20206;-78
2021/06/08 16:36:42;;;;;;;8.15;5.20;;;23.50;80.80;;;;;;4944270;29;20188;-79
2021/06/08 16:39:11;;;;;;;6.13;3.83;;;23.30;82.80;;;;;;4953296;29;20174;-78
2021/06/08 16:41:38;;;;;;;5.95;3.65;;;23.10;83.10;;;;;;4952534;29;20142;-77
2021/06/08 16:44:04;;;;;;;8.32;3.72;;;22.90;84.50;;;;;;4951623;28;20102;-76
2021/06/08 16:46:32;;;;;;;6.88;3.72;;;22.70;87.00;;;;;;4943317;29;20043;-79
2021/06/08 16:48:59;;;;;;;5.38;3.42;;;22.50;89.80;;;;;;4940861;29;20093;-74
2021/06/08 16:51:37;;;;;;;4.68;3.15;;;22.40;90.30;;;;;;4940144;28;20075;-76
2021/06/08 16:54:04;;;;;;;6.85;4.25;;;22.30;90.90;;;;;;4952655;29;20059;-76
2021/06/08 16:56:31;;;;;;;6.40;3.80;;;22.10;91.70;;;;;;4949933;29;20435;-76
2021/06/08 16:58:58;;;;;;;6.60;4.20;;;22.00;92.30;;;;;;4944391;29;20054;-78
2021/06/08 17:01:24;;;;;;;6.82;4.45;;;21.90;92.90;;;;;;4946661;29;20131;-79
2021/06/08 17:03:53;;;;;;;6.50;4.43;;;21.60;92.70;;;;;;4951485;29;20133;-77
2021/06/08 17:06:19;;;;;;;7.35;4.15;;;21.50;93.30;;;;;;4951065;29;20408;-79
2021/06/08 17:08:46;;;;;;;5.88;4.38;;;21.30;93.80;;;;;;4920333;29;20166;-78
2021/06/08 17:11:13;;;;;;;5.43;3.85;;;21.20;94.50;;;;;;4939217;28;20047;-76
2021/06/08 17:13:41;;;;;;;5.80;3.83;;;21.10;94.80;;;;;;4949424;29;20055;-79
2021/06/08 17:16:07;;;;;;;5.15;3.30;;;21.00;95.40;;;;;;4951406;29;20051;-78
2021/06/08 17:18:34;;;;;;;5.50;3.47;;;21.00;96.30;;;;;;4951101;29;20134;-75
2021/06/08 17:21:02;;;;;;;6.70;4.05;;;21.00;96.60;;;;;;4952043;29;20078;-77
2021/06/08 17:23:29;;;;;;;6.85;4.85;;;20.90;96.90;;;;;;4951260;29;20130;-78
2021/06/08 17:25:55;;;;;;;8.65;4.95;;;20.90;97.30;;;;;;4951525;29;20453;-75
2021/06/08 17:28:23;;;;;;;8.50;4.80;;;20.90;97.60;;;;;;4950749;29;20155;-75
2021/06/08 17:30:51;;;;;;;7.70;4.78;;;20.80;97.80;;;;;;4950633;29;20059;-76
2021/06/08 17:33:19;;;;;;;6.60;4.78;;;20.70;98.00;;;;;;4962848;29;20106;-78
2021/06/08 17:35:49;;;;;;;6.15;4.68;;;20.80;98.20;;;;;;4951964;29;20162;-77
2021/06/08 17:38:19;;;;;;;6.63;4.85;;;20.70;98.20;;;;;;4951852;29;20047;-75
2021/06/08 17:40:47;;;;;;;6.93;4.35;;;20.70;98.30;;;;;;4951428;29;20493;-78
2021/06/08 17:43:13;;;;;;;7.18;5.13;;;20.60;98.60;;;;;;4950926;29;20130;-76
2021/06/08 17:45:40;;;;;;;8.73;5.82;;;20.60;98.80;;;;;;4950909;29;20565;-78
2021/06/08 17:48:07;;;;;;;6.78;4.95;;;20.50;98.80;;;;;;4952619;29;20070;-78
2021/06/08 17:50:34;;;;;;;8.98;4.60;;;20.40;98.70;;;;;;4951388;29;20044;-77
2021/06/08 17:53:02;;;;;;;7.45;4.78;;;20.40;98.80;;;;;;4951221;29;20051;-76
2021/06/08 17:55:29;;;;;;;7.72;5.03;;;20.30;98.90;;;;;;4950312;28;20055;-79